createdAt,value
2023-02-11T00:00:05.371Z,101991.91
2023-02-11T00:02:33.083Z,101989.22
2023-02-11T00:05:01.375Z,101992.75
2023-02-11T00:07:29.593Z,101984.03
2023-02-11T00:09:57.031Z,101983.25
2023-02-11T00:12:24.360Z,101973.53
2023-02-11T00:14:53.023Z,101966.41
2023-02-11T00:17:20.304Z,101968.22
2023-02-11T00:19:50.926Z,101970.03
2023-02-11T00:22:18.354Z,101969.06
2023-02-11T00:24:46.003Z,101969.13
2023-02-11T00:27:13.312Z,101960.16
2023-02-11T00:29:40.696Z,101966.16
2023-02-11T00:32:09.307Z,101946.56
2023-02-11T00:34:38.044Z,101944.69
2023-02-11T00:37:05.531Z,101934.91
2023-02-11T00:39:33.049Z,101932.16
2023-02-11T00:42:00.500Z,101932.16
2023-02-11T00:44:27.794Z,101931.22
2023-02-11T00:46:56.205Z,101932.97
2023-02-11T00:49:25.249Z,101918.16
2023-02-11T00:51:52.559Z,101910.84
2023-02-11T00:54:19.903Z,101902.84
2023-02-11T00:56:47.220Z,101902.09
2023-02-11T00:59:14.864Z,101895.69
2023-02-11T01:01:42.203Z,101889.44
2023-02-11T01:04:09.591Z,101872.66
2023-02-11T01:06:38.215Z,101871.75
2023-02-11T01:09:05.517Z,101869.91
2023-02-11T01:11:32.933Z,101869.00
2023-02-11T01:14:00.313Z,101869.91
2023-02-11T01:16:27.654Z,101860.00
2023-02-11T01:18:54.939Z,101867.09
2023-02-11T01:21:22.267Z,101874.94
2023-02-11T01:23:50.863Z,101882.84
2023-02-11T01:26:18.187Z,101884.50
2023-02-11T01:28:45.641Z,101879.31
2023-02-11T01:31:13.006Z,101895.09
2023-02-11T01:33:40.387Z,101885.06
2023-02-11T01:36:08.127Z,101885.13
2023-02-11T01:38:35.841Z,101887.78
2023-02-11T01:41:06.503Z,101881.38
2023-02-11T01:43:35.725Z,101882.25
2023-02-11T01:46:15.385Z,101867.28
2023-02-11T01:48:44.789Z,101879.03
2023-02-11T01:51:14.116Z,101873.66
2023-02-11T01:53:59.121Z,101863.06
2023-02-11T01:56:46.585Z,101853.41
2023-02-11T01:59:15.891Z,101853.22
2023-02-11T02:01:47.972Z,101851.50
2023-02-11T02:04:18.417Z,101839.81
2023-02-11T02:06:49.966Z,101837.06
2023-02-11T02:09:20.958Z,101833.53
2023-02-11T02:11:49.887Z,101836.72
2023-02-11T02:14:17.220Z,101831.56
2023-02-11T02:16:45.603Z,101831.41
2023-02-11T02:19:25.722Z,101833.22
2023-02-11T02:22:14.031Z,101825.22
2023-02-11T02:24:50.402Z,101841.78
2023-02-11T02:27:27.296Z,101843.69
2023-02-11T02:30:04.166Z,101842.03
2023-02-11T02:32:38.043Z,101844.59
2023-02-11T02:35:10.714Z,101838.53
2023-02-11T02:37:41.361Z,101824.97
2023-02-11T02:40:11.919Z,101819.66
2023-02-11T02:42:41.012Z,101823.88
2023-02-11T02:45:09.381Z,101809.44
2023-02-11T02:47:38.028Z,101803.25
2023-02-11T02:50:06.676Z,101801.34
2023-02-11T02:52:36.239Z,101792.44
2023-02-11T02:55:09.913Z,101804.91
2023-02-11T02:57:40.604Z,101797.94
2023-02-11T03:00:18.753Z,101799.66
2023-02-11T03:02:53.134Z,101797.78
2023-02-11T03:05:25.211Z,101786.41
2023-02-11T03:07:55.597Z,101794.06
2023-02-11T03:10:26.154Z,101808.97
2023-02-11T03:12:55.003Z,101805.25
2023-02-11T03:15:23.788Z,101812.19
2023-02-11T03:17:53.791Z,101811.16
2023-02-11T03:20:23.027Z,101810.38
2023-02-11T03:22:53.451Z,101806.84
2023-02-11T03:25:22.023Z,101802.56
2023-02-11T03:27:55.134Z,101793.47
2023-02-11T03:30:26.493Z,101778.66
2023-02-11T03:32:59.129Z,101767.94
2023-02-11T03:35:29.086Z,101769.50
2023-02-11T03:37:58.798Z,101762.59
2023-02-11T03:40:27.229Z,101764.31
2023-02-11T03:42:57.818Z,101760.69
2023-02-11T03:45:26.607Z,101746.56
2023-02-11T03:47:57.155Z,101737.66
2023-02-11T03:50:25.739Z,101735.00
2023-02-11T03:52:54.402Z,101736.63
2023-02-11T03:55:25.799Z,101740.41
2023-02-11T03:57:53.226Z,101728.69
2023-02-11T04:00:20.716Z,101718.09
2023-02-11T04:02:48.119Z,101730.28
2023-02-11T04:05:17.401Z,101721.44
2023-02-11T04:07:44.691Z,101736.41
2023-02-11T04:10:12.423Z,101734.56
2023-02-11T04:12:40.057Z,101720.63
2023-02-11T04:15:07.992Z,101722.22
2023-02-11T04:17:35.267Z,101727.53
2023-02-11T04:20:02.634Z,101722.97
2023-02-11T04:22:31.943Z,101730.91
2023-02-11T04:24:59.314Z,101724.63
2023-02-11T04:27:26.631Z,101727.28
2023-02-11T04:29:54.131Z,101726.34
2023-02-11T04:32:21.474Z,101729.88
2023-02-11T04:34:48.813Z,101725.44
2023-02-11T04:37:16.347Z,101738.78
2023-02-11T04:39:44.988Z,101740.50
2023-02-11T04:42:12.334Z,101743.28
2023-02-11T04:44:39.686Z,101753.03
2023-02-11T04:47:06.990Z,101746.94
2023-02-11T04:49:34.312Z,101754.84
2023-02-11T04:52:01.655Z,101757.38
2023-02-11T04:54:28.949Z,101753.91
2023-02-11T04:56:57.568Z,101759.34
2023-02-11T04:59:25.099Z,101750.38
2023-02-11T05:01:52.406Z,101747.09
2023-02-11T05:04:19.853Z,101746.25
2023-02-11T05:06:47.147Z,101765.81
2023-02-11T05:09:14.565Z,101764.97
2023-02-11T05:11:41.846Z,101760.72
2023-02-11T05:14:10.471Z,101767.25
2023-02-11T05:16:37.794Z,101771.00
2023-02-11T05:19:05.354Z,101763.78
2023-02-11T05:21:32.662Z,101765.41
2023-02-11T05:23:59.982Z,101756.78
2023-02-11T05:26:27.308Z,101764.06
2023-02-11T05:28:54.648Z,101755.06
2023-02-11T05:31:23.407Z,101754.06
2023-02-11T05:33:50.737Z,101750.13
2023-02-11T05:36:18.095Z,101747.97
2023-02-11T05:38:45.389Z,101750.56
2023-02-11T05:41:12.720Z,101753.47
2023-02-11T05:43:40.034Z,101734.94
2023-02-11T05:46:07.399Z,101739.41
2023-02-11T05:48:36.051Z,101746.44
2023-02-11T05:51:03.366Z,101737.63
2023-02-11T05:53:30.643Z,101737.53
2023-02-11T05:55:57.922Z,101740.06
2023-02-11T05:58:25.214Z,101742.72
2023-02-11T06:00:52.499Z,101740.16
2023-02-11T06:03:19.812Z,101734.84
2023-02-11T06:05:48.699Z,101732.38
2023-02-11T06:08:16.098Z,101728.13
2023-02-11T06:10:45.603Z,101728.06
2023-02-11T06:13:12.962Z,101728.97
2023-02-11T06:15:40.343Z,101729.63
2023-02-11T06:18:08.617Z,101732.38
2023-02-11T06:20:35.940Z,101735.78
2023-02-11T06:23:04.756Z,101727.00
2023-02-11T06:25:32.109Z,101725.09
2023-02-11T06:27:59.395Z,101725.00
2023-02-11T06:30:26.684Z,101716.16
2023-02-11T06:32:54.681Z,101724.25
2023-02-11T06:35:22.066Z,101721.47
2023-02-11T06:37:49.682Z,101709.78
2023-02-11T06:40:18.379Z,101717.03
2023-02-11T06:42:45.708Z,101712.56
2023-02-11T06:45:13.920Z,101707.97
2023-02-11T06:47:41.974Z,101710.53
2023-02-11T06:50:11.828Z,101710.53
2023-02-11T06:52:39.151Z,101706.03
2023-02-11T06:55:06.764Z,101705.06
2023-02-11T06:57:35.399Z,101705.72
2023-02-11T07:00:02.762Z,101712.09
2023-02-11T07:02:30.123Z,101696.25
2023-02-11T07:04:57.447Z,101702.16
2023-02-11T07:07:24.715Z,101695.22
2023-02-11T07:09:52.072Z,101689.88
2023-02-11T07:12:19.355Z,101695.94
2023-02-11T07:14:48.051Z,101693.38
2023-02-11T07:17:15.382Z,101696.91
2023-02-11T07:19:42.788Z,101698.63
2023-02-11T07:22:10.116Z,101702.84
2023-02-11T07:24:37.406Z,101704.88
2023-02-11T07:27:04.766Z,101714.69
2023-02-11T07:29:32.093Z,101701.38
2023-02-11T07:32:00.734Z,101706.56
2023-02-11T07:34:28.345Z,101722.44
2023-02-11T07:36:55.710Z,101717.41
2023-02-11T07:39:27.142Z,101724.34
2023-02-11T07:41:54.508Z,101718.84
2023-02-11T07:44:21.793Z,101710.84
2023-02-11T07:46:49.347Z,101720.00
2023-02-11T07:49:18.828Z,101714.25
2023-02-11T07:51:47.148Z,101727.09
2023-02-11T07:54:14.431Z,101724.44
2023-02-11T07:56:41.729Z,101717.06
2023-02-11T07:59:09.064Z,101721.25
2023-02-11T08:01:36.333Z,101721.59
2023-02-11T08:04:04.729Z,101709.38
2023-02-11T08:06:34.313Z,101713.34
2023-02-11T08:09:05.111Z,101700.41
2023-02-11T08:11:32.741Z,101704.44
2023-02-11T08:14:00.096Z,101715.56
2023-02-11T08:16:29.236Z,101724.66
2023-02-11T08:18:57.511Z,101729.94
2023-02-11T08:21:25.181Z,101724.06
2023-02-11T08:23:54.121Z,101717.25
2023-02-11T08:26:22.934Z,101719.22
2023-02-11T08:28:50.974Z,101713.81
2023-02-11T08:31:19.860Z,101714.63
2023-02-11T08:33:47.644Z,101716.03
2023-02-11T08:36:16.247Z,101714.19
2023-02-11T08:38:43.849Z,101709.78
2023-02-11T08:41:14.788Z,101705.03
2023-02-11T08:43:43.039Z,101708.44
2023-02-11T08:46:12.955Z,101702.16
2023-02-11T08:48:40.270Z,101711.97
2023-02-11T08:51:08.807Z,101709.06
2023-02-11T08:53:36.147Z,101693.34
2023-02-11T08:56:03.893Z,101712.44
2023-02-11T08:58:32.878Z,101721.25
2023-02-11T09:01:00.503Z,101725.66
2023-02-11T09:03:28.002Z,101720.34
2023-02-11T09:05:56.811Z,101717.03
2023-02-11T09:08:24.075Z,101719.47
2023-02-11T09:10:51.616Z,101735.56
2023-02-11T09:13:19.022Z,101730.97
2023-02-11T09:15:47.639Z,101726.31
2023-02-11T09:18:15.215Z,101718.28
2023-02-11T09:20:42.789Z,101721.63
2023-02-11T09:23:10.864Z,101731.69
2023-02-11T09:25:39.873Z,101733.22
2023-02-11T09:28:07.533Z,101732.75
2023-02-11T09:30:34.924Z,101734.50
2023-02-11T09:33:03.808Z,101740.88
2023-02-11T09:35:31.092Z,101759.00
2023-02-11T09:37:58.366Z,101755.31
2023-02-11T09:40:25.645Z,101752.03
2023-02-11T09:42:57.468Z,101755.53
2023-02-11T09:45:28.641Z,101759.69
2023-02-11T09:47:57.988Z,101741.97
2023-02-11T09:50:29.964Z,101745.56
2023-02-11T09:52:59.159Z,101740.22
2023-02-11T09:55:28.038Z,101733.66
2023-02-11T09:57:56.594Z,101738.09
2023-02-11T10:00:26.444Z,101732.16
2023-02-11T10:03:10.318Z,101747.13
2023-02-11T10:05:44.926Z,101741.09
2023-02-11T10:08:17.033Z,101738.09
2023-02-11T10:10:47.202Z,101738.78
2023-02-11T10:13:26.039Z,101731.81
2023-02-11T10:15:58.826Z,101733.09
2023-02-11T10:18:41.436Z,101719.56
2023-02-11T10:21:16.744Z,101714.66
2023-02-11T10:23:46.690Z,101718.41
2023-02-11T10:26:15.352Z,101723.44
2023-02-11T10:28:45.095Z,101714.56
2023-02-11T10:31:16.200Z,101717.41
2023-02-11T10:33:45.894Z,101721.06
2023-02-11T10:36:15.679Z,101713.94
2023-02-11T10:38:43.471Z,101715.72
2023-02-11T10:41:11.264Z,101724.44
2023-02-11T10:43:38.582Z,101739.72
2023-02-11T10:46:06.652Z,101732.81
2023-02-11T10:48:38.365Z,101718.44
2023-02-11T10:51:08.307Z,101732.50
2023-02-11T10:53:37.049Z,101722.84
2023-02-11T10:56:05.009Z,101705.28
2023-02-11T10:58:35.261Z,101700.38
2023-02-11T11:01:04.975Z,101694.53
2023-02-11T11:03:37.686Z,101693.09
2023-02-11T11:06:06.690Z,101693.47
2023-02-11T11:08:45.199Z,101690.31
2023-02-11T11:11:13.325Z,101702.03
2023-02-11T11:13:41.733Z,101700.00
2023-02-11T11:16:19.777Z,101694.44
2023-02-11T11:18:48.334Z,101690.03
2023-02-11T11:21:17.013Z,101699.59
2023-02-11T11:23:50.198Z,101695.16
2023-02-11T11:26:18.393Z,101699.47
2023-02-11T11:28:52.080Z,101686.03
2023-02-11T11:31:21.286Z,101695.31
2023-02-11T11:33:49.139Z,101699.75
2023-02-11T11:36:18.259Z,101692.84
2023-02-11T11:38:50.116Z,101695.50
2023-02-11T11:41:20.219Z,101687.91
2023-02-11T11:43:57.465Z,101686.09
2023-02-11T11:46:26.281Z,101689.47
2023-02-11T11:48:55.405Z,101690.72
2023-02-11T11:51:24.644Z,101686.56
2023-02-11T11:53:54.346Z,101700.56
2023-02-11T11:56:24.198Z,101704.63
2023-02-11T11:58:51.617Z,101711.41
2023-02-11T12:01:24.368Z,101710.63
2023-02-11T12:04:16.107Z,101707.88
2023-02-11T12:06:51.065Z,101709.31
2023-02-11T12:09:24.502Z,101707.16
2023-02-11T12:12:02.364Z,101697.53
2023-02-11T12:14:38.695Z,101696.13
2023-02-11T12:17:10.227Z,101702.69
2023-02-11T12:19:56.285Z,101687.38
2023-02-11T12:22:32.177Z,101694.69
2023-02-11T12:25:20.615Z,101697.59
2023-02-11T12:27:53.118Z,101687.66
2023-02-11T12:30:29.214Z,101695.53
2023-02-11T12:33:00.159Z,101697.97
2023-02-11T12:35:31.664Z,101691.47
2023-02-11T12:38:08.122Z,101702.97
2023-02-11T12:40:38.780Z,101699.28
2023-02-11T12:43:16.622Z,101701.13
2023-02-11T12:45:50.547Z,101693.78
2023-02-11T12:48:23.618Z,101687.59
2023-02-11T12:50:56.728Z,101692.91
2023-02-11T12:53:30.646Z,101699.03
2023-02-11T12:56:01.474Z,101695.16
2023-02-11T12:58:43.979Z,101694.13
2023-02-11T13:01:16.061Z,101697.28
2023-02-11T13:03:46.980Z,101700.78
2023-02-11T13:06:16.104Z,101688.41
2023-02-11T13:08:45.897Z,101687.44
2023-02-11T13:11:16.460Z,101675.19
2023-02-11T13:13:50.965Z,101677.06
2023-02-11T13:16:20.850Z,101666.53
2023-02-11T13:18:51.347Z,101667.13
2023-02-11T13:21:34.580Z,101661.72
2023-02-11T13:24:06.168Z,101663.84
2023-02-11T13:26:38.258Z,101658.44
2023-02-11T13:29:12.811Z,101658.13
2023-02-11T13:31:40.229Z,101653.00
2023-02-11T13:34:23.900Z,101648.41
2023-02-11T13:36:57.733Z,101653.00
2023-02-11T13:39:25.410Z,101646.53
2023-02-11T13:42:02.740Z,101651.06
2023-02-11T13:44:34.615Z,101660.69
2023-02-11T13:47:04.564Z,101660.88
2023-02-11T13:49:35.262Z,101658.03
2023-02-11T13:52:04.010Z,101650.84
2023-02-11T13:54:33.296Z,101647.06
2023-02-11T13:57:19.036Z,101647.25
2023-02-11T13:59:48.715Z,101642.22
2023-02-11T14:02:41.932Z,101647.94
2023-02-11T14:05:40.939Z,101665.81
2023-02-11T14:08:31.229Z,101676.03
2023-02-11T14:10:59.722Z,101663.91
2023-02-11T14:13:28.371Z,101678.25
2023-02-11T14:16:08.058Z,101671.97
2023-02-11T14:18:53.112Z,101674.19
2023-02-11T14:21:23.003Z,101674.09
2023-02-11T14:23:53.281Z,101673.06
2023-02-11T14:26:28.784Z,101682.81
2023-02-11T14:29:01.383Z,101665.22
2023-02-11T14:31:35.818Z,101673.81
2023-02-11T14:34:15.558Z,101674.09
2023-02-11T14:36:55.618Z,101662.53
2023-02-11T14:39:26.153Z,101668.19
2023-02-11T14:41:54.119Z,101675.03
2023-02-11T14:44:22.897Z,101673.94
2023-02-11T14:46:53.413Z,101674.72
2023-02-11T14:49:25.031Z,101678.19
2023-02-11T14:51:53.833Z,101681.09
2023-02-11T14:54:24.857Z,101680.28
2023-02-11T14:57:06.397Z,101668.56
2023-02-11T14:59:33.767Z,101662.13
2023-02-11T15:02:02.506Z,101661.50
2023-02-11T15:04:30.779Z,101667.91
2023-02-11T15:06:59.325Z,101671.13
2023-02-11T15:09:32.461Z,101674.72
2023-02-11T15:11:59.888Z,101681.09
2023-02-11T15:14:28.407Z,101681.00
2023-02-11T15:16:59.227Z,101694.97
2023-02-11T15:19:33.050Z,101681.25
2023-02-11T15:22:01.559Z,101677.38
2023-02-11T15:24:29.645Z,101674.66
2023-02-11T15:26:57.622Z,101669.22
2023-02-11T15:29:25.438Z,101681.09
2023-02-11T15:32:04.226Z,101678.19
2023-02-11T15:34:33.022Z,101679.25
2023-02-11T15:37:00.349Z,101684.50
2023-02-11T15:39:32.297Z,101694.78
2023-02-11T15:42:14.733Z,101688.63
2023-02-11T15:44:42.342Z,101693.25
2023-02-11T15:47:10.978Z,101685.94
2023-02-11T15:49:40.202Z,101684.19
2023-02-11T15:52:08.349Z,101684.97
2023-02-11T15:54:35.666Z,101672.53
2023-02-11T15:57:04.162Z,101685.84
2023-02-11T15:59:35.243Z,101685.50
2023-02-11T16:02:07.362Z,101686.03
2023-02-11T16:04:35.100Z,101694.41
2023-02-11T16:07:05.071Z,101704.91
2023-02-11T16:09:33.609Z,101703.97
2023-02-11T16:12:03.019Z,101707.06
2023-02-11T16:14:32.287Z,101715.41
2023-02-11T16:17:02.917Z,101711.25
2023-02-11T16:19:30.762Z,101711.75
2023-02-11T16:21:59.559Z,101717.22
2023-02-11T16:24:29.305Z,101721.69
2023-02-11T16:26:58.516Z,101723.59
2023-02-11T16:29:27.182Z,101722.78
2023-02-11T16:31:56.104Z,101734.25
2023-02-11T16:34:24.703Z,101728.44
2023-02-11T16:36:52.785Z,101740.59
2023-02-11T16:39:21.551Z,101735.44
2023-02-11T16:41:51.478Z,101737.09
2023-02-11T16:44:18.776Z,101740.06
2023-02-11T16:46:46.592Z,101750.97
2023-02-11T16:49:17.193Z,101736.09
2023-02-11T16:51:45.835Z,101750.38
2023-02-11T16:54:14.622Z,101737.25
2023-02-11T16:56:41.955Z,101735.38
2023-02-11T16:59:10.613Z,101743.53
2023-02-11T17:01:38.917Z,101738.91
2023-02-11T17:04:07.111Z,101748.75
2023-02-11T17:06:35.177Z,101747.75
2023-02-11T17:09:02.473Z,101757.78
2023-02-11T17:11:30.050Z,101754.28
2023-02-11T17:14:00.612Z,101761.28
2023-02-11T17:16:29.829Z,101760.69
2023-02-11T17:18:57.557Z,101757.19
2023-02-11T17:21:29.525Z,101749.06
2023-02-11T17:23:57.201Z,101750.97
2023-02-11T17:26:24.481Z,101757.63
2023-02-11T17:28:51.814Z,101761.81
2023-02-11T17:31:19.399Z,101770.78
2023-02-11T17:33:48.275Z,101781.28
2023-02-11T17:36:15.593Z,101782.66
2023-02-11T17:38:42.866Z,101788.66
2023-02-11T17:41:10.196Z,101787.69
2023-02-11T17:43:37.493Z,101781.53
2023-02-11T17:46:06.689Z,101772.28
2023-02-11T17:48:34.123Z,101764.56
2023-02-11T17:51:03.128Z,101782.38
2023-02-11T17:53:30.769Z,101787.44
2023-02-11T17:55:58.138Z,101785.84
2023-02-11T17:58:25.417Z,101794.84
2023-02-11T18:00:53.043Z,101806.47
2023-02-11T18:03:20.363Z,101808.28
2023-02-11T18:05:47.630Z,101806.22
2023-02-11T18:08:16.248Z,101801.09
2023-02-11T18:10:44.196Z,101797.63
2023-02-11T18:13:11.453Z,101797.06
2023-02-11T18:15:38.719Z,101804.16
2023-02-11T18:18:06.027Z,101808.44
2023-02-11T18:20:33.353Z,101810.34
2023-02-11T18:23:00.640Z,101815.44
2023-02-11T18:25:29.940Z,101821.63
2023-02-11T18:27:57.266Z,101826.00
2023-02-11T18:30:24.651Z,101823.41
2023-02-11T18:32:54.036Z,101835.06
2023-02-11T18:35:21.305Z,101831.56
2023-02-11T18:37:48.587Z,101836.63
2023-02-11T18:40:16.547Z,101835.19
2023-02-11T18:42:46.210Z,101838.59
2023-02-11T18:45:14.942Z,101825.47
2023-02-11T18:47:42.472Z,101833.38
2023-02-11T18:50:10.379Z,101843.28
2023-02-11T18:52:38.414Z,101850.41
2023-02-11T18:55:06.012Z,101853.94
2023-02-11T18:57:33.289Z,101854.66
2023-02-11T19:00:01.917Z,101851.25
2023-02-11T19:02:29.480Z,101854.44
2023-02-11T19:04:56.778Z,101859.75
2023-02-11T19:07:25.118Z,101863.19
2023-02-11T19:09:52.392Z,101869.31
2023-02-11T19:12:19.654Z,101873.78
2023-02-11T19:14:46.936Z,101881.19
2023-02-11T19:17:15.568Z,101890.84
2023-02-11T19:19:43.003Z,101890.88
2023-02-11T19:22:10.862Z,101897.19
2023-02-11T19:24:38.656Z,101904.91
2023-02-11T19:27:06.096Z,101913.13
2023-02-11T19:29:35.115Z,101905.78
2023-02-11T19:32:02.919Z,101908.56
2023-02-11T19:34:31.636Z,101913.66
2023-02-11T19:37:00.787Z,101920.81
2023-02-11T19:39:28.138Z,101920.63
2023-02-11T19:41:55.475Z,101915.41
2023-02-11T19:44:22.757Z,101912.78
2023-02-11T19:46:52.748Z,101905.69
2023-02-11T19:49:23.363Z,101908.41
2023-02-11T19:51:52.705Z,101919.72
2023-02-11T19:54:20.757Z,101922.34
2023-02-11T19:56:48.696Z,101934.97
2023-02-11T19:59:16.660Z,101939.22
2023-02-11T20:01:47.488Z,101938.47
2023-02-11T20:04:15.218Z,101942.84
2023-02-11T20:06:42.475Z,101944.66
2023-02-11T20:09:13.228Z,101943.94
2023-02-11T20:11:40.799Z,101953.97
2023-02-11T20:14:08.556Z,101954.59
2023-02-11T20:16:47.391Z,101960.94
2023-02-11T20:19:17.718Z,101967.03
2023-02-11T20:21:47.218Z,101956.25
2023-02-11T20:24:16.228Z,101969.50
2023-02-11T20:26:45.085Z,101956.13
2023-02-11T20:29:12.367Z,101964.09
2023-02-11T20:31:39.732Z,101969.56
2023-02-11T20:34:07.214Z,101962.47
2023-02-11T20:36:35.668Z,101958.03
2023-02-11T20:39:04.731Z,101949.13
2023-02-11T20:41:34.539Z,101962.78
2023-02-11T20:44:02.868Z,101948.44
2023-02-11T20:46:30.977Z,101945.53
2023-02-11T20:48:58.559Z,101945.72
2023-02-11T20:51:27.474Z,101946.50
2023-02-11T20:53:55.319Z,101937.47
2023-02-11T20:56:24.136Z,101934.94
2023-02-11T20:58:53.235Z,101937.72
2023-02-11T21:01:21.582Z,101930.72
2023-02-11T21:03:50.805Z,101934.13
2023-02-11T21:06:20.500Z,101936.06
2023-02-11T21:08:47.901Z,101944.13
2023-02-11T21:11:15.643Z,101945.63
2023-02-11T21:13:43.748Z,101935.66
2023-02-11T21:16:16.023Z,101944.31
2023-02-11T21:18:44.558Z,101952.16
2023-02-11T21:21:11.862Z,101958.31
2023-02-11T21:23:39.746Z,101955.09
2023-02-11T21:26:07.529Z,101961.22
2023-02-11T21:28:35.155Z,101965.72
2023-02-11T21:31:03.049Z,101956.66
2023-02-11T21:33:33.508Z,101961.44
2023-02-11T21:36:01.421Z,101972.66
2023-02-11T21:38:28.989Z,101970.13
2023-02-11T21:40:56.367Z,101973.41
2023-02-11T21:43:23.652Z,101979.16
2023-02-11T21:45:52.162Z,101976.25
2023-02-11T21:48:19.534Z,101979.81
2023-02-11T21:50:48.382Z,101980.75
2023-02-11T21:53:15.910Z,101990.16
2023-02-11T21:55:43.214Z,101995.91
2023-02-11T21:58:11.305Z,102000.78
2023-02-11T22:00:38.830Z,101998.34
2023-02-11T22:03:06.138Z,101998.22
2023-02-11T22:05:33.420Z,102009.81
2023-02-11T22:08:05.370Z,101997.44
2023-02-11T22:10:32.645Z,102003.75
2023-02-11T22:12:59.901Z,102008.97
2023-02-11T22:15:27.153Z,102010.81
2023-02-11T22:17:54.440Z,102011.00
2023-02-11T22:20:21.895Z,102009.22
2023-02-11T22:22:49.155Z,102008.09
2023-02-11T22:25:17.965Z,102025.94
2023-02-11T22:27:45.288Z,102029.53
2023-02-11T22:30:14.127Z,102032.31
2023-02-11T22:32:42.489Z,102035.00
2023-02-11T22:35:09.777Z,102032.50
2023-02-11T22:37:37.377Z,102034.03
2023-02-11T22:40:04.902Z,102038.44
2023-02-11T22:42:33.512Z,102031.00
2023-02-11T22:45:00.792Z,102024.75
2023-02-11T22:47:28.209Z,102031.69
2023-02-11T22:49:55.475Z,102035.41
2023-02-11T22:52:23.676Z,102047.09
2023-02-11T22:54:51.546Z,102054.16
2023-02-11T22:57:18.835Z,102058.47
2023-02-11T22:59:48.885Z,102059.41
2023-02-11T23:02:16.279Z,102061.34
2023-02-11T23:04:43.594Z,102062.28
2023-02-11T23:07:10.900Z,102071.22
2023-02-11T23:09:38.204Z,102068.22
2023-02-11T23:12:05.906Z,102068.13
2023-02-11T23:14:33.185Z,102073.34
2023-02-11T23:17:01.769Z,102074.31
2023-02-11T23:19:29.050Z,102072.75
2023-02-11T23:21:56.332Z,102077.00
2023-02-11T23:24:23.589Z,102084.63
2023-02-11T23:26:50.939Z,102086.88
2023-02-11T23:29:18.328Z,102084.22
2023-02-11T23:31:46.465Z,102092.94
2023-02-11T23:34:17.099Z,102095.00
2023-02-11T23:36:44.447Z,102093.69
2023-02-11T23:39:14.106Z,102083.38
2023-02-11T23:41:41.370Z,102079.66
2023-02-11T23:44:08.650Z,102090.63
2023-02-11T23:46:35.938Z,102094.06
2023-02-11T23:49:03.223Z,102097.56
2023-02-11T23:51:31.826Z,102095.75
2023-02-11T23:53:59.114Z,102083.41
2023-02-11T23:56:27.034Z,102086.19
2023-02-11T23:58:55.222Z,102089.53
